sensor_id;sensor_type;location;lat;lon;timestamp;P1;P2;P0
51052;PMS5003;37093;37.716;-122.060;2023-03-01T00:01:19;1;0;
51052;PMS5003;37093;37.716;-122.060;2023-03-01T00:03:49;4;2;
51052;PMS5003;37093;37.716;-122.060;2023-03-01T00:06:18;4;2;
51052;PMS5003;37093;37.716;-122.060;2023-03-01T00:08:47;4;1;
51052;PMS5003;37093;37.716;-122.060;2023-03-01T00:11:16;2;2;
51052;PMS5003;37093;37.716;-122.060;2023-03-01T00:13:47;2;1;
51052;PMS5003;37093;37.716;-122.060;2023-03-01T00:16:19;8;3;
51052;PMS5003;37093;37.716;-122.060;2023-03-01T00:18:48;2;2;
51052;PMS5003;37093;37.716;-122.060;2023-03-01T00:21:17;1;1;
51052;PMS5003;37093;37.716;-122.060;2023-03-01T00:23:47;4;4;
51052;PMS5003;37093;37.716;-122.060;2023-03-01T00:26:16;3;3;
51052;PMS5003;37093;37.716;-122.060;2023-03-01T00:28:46;1;1;
51052;PMS5003;37093;37.716;-122.060;2023-03-01T00:31:16;2;0;
51052;PMS5003;37093;37.716;-122.060;2023-03-01T00:33:47;1;0;
51052;PMS5003;37093;37.716;-122.060;2023-03-01T00:36:15;1;0;
51052;PMS5003;37093;37.716;-122.060;2023-03-01T00:38:44;4;0;
51052;PMS5003;37093;37.716;-122.060;2023-03-01T00:41:14;1;1;
51052;PMS5003;37093;37.716;-122.060;2023-03-01T00:43:44;0;0;
51052;PMS5003;37093;37.716;-122.060;2023-03-01T00:46:13;2;2;
51052;PMS5003;37093;37.716;-122.060;2023-03-01T00:48:43;0;0;
51052;PMS5003;37093;37.716;-122.060;2023-03-01T00:51:12;2;0;
51052;PMS5003;37093;37.716;-122.060;2023-03-01T00:53:42;5;0;
51052;PMS5003;37093;37.716;-122.060;2023-03-01T00:56:11;1;1;
51052;PMS5003;37093;37.716;-122.060;2023-03-01T00:58:41;2;1;
51052;PMS5003;37093;37.716;-122.060;2023-03-01T01:01:11;2;1;
51052;PMS5003;37093;37.716;-122.060;2023-03-01T01:03:42;2;2;
51052;PMS5003;37093;37.716;-122.060;2023-03-01T01:06:14;4;1;
51052;PMS5003;37093;37.716;-122.060;2023-03-01T01:08:43;6;3;
51052;PMS5003;37093;37.716;-122.060;2023-03-01T01:11:12;2;1;
51052;PMS5003;37093;37.716;-122.060;2023-03-01T01:13:41;5;1;
51052;PMS5003;37093;37.716;-122.060;2023-03-01T01:16:11;8;2;
51052;PMS5003;37093;37.716;-122.060;2023-03-01T01:18:39;1;1;
51052;PMS5003;37093;37.716;-122.060;2023-03-01T01:21:09;2;1;
51052;PMS5003;37093;37.716;-122.060;2023-03-01T01:23:40;1;0;
51052;PMS5003;37093;37.716;-122.060;2023-03-01T01:26:10;3;2;
51052;PMS5003;37093;37.716;-122.060;2023-03-01T01:28:41;4;2;
51052;PMS5003;37093;37.716;-122.060;2023-03-01T01:31:09;2;2;
51052;PMS5003;37093;37.716;-122.060;2023-03-01T01:33:38;0;0;
51052;PMS5003;37093;37.716;-122.060;2023-03-01T01:36:07;1;1;
51052;PMS5003;37093;37.716;-122.060;2023-03-01T01:38:36;0;0;
51052;PMS5003;37093;37.716;-122.060;2023-03-01T01:41:06;0;0;
51052;PMS5003;37093;37.716;-122.060;2023-03-01T01:43:38;5;2;
51052;PMS5003;37093;37.716;-122.060;2023-03-01T01:46:12;1;0;
51052;PMS5003;37093;37.716;-122.060;2023-03-01T01:48:50;2;2;
51052;PMS5003;37093;37.716;-122.060;2023-03-01T01:51:23;2;2;
51052;PMS5003;37093;37.716;-122.060;2023-03-01T01:53:55;2;1;
51052;PMS5003;37093;37.716;-122.060;2023-03-01T01:56:27;2;1;
51052;PMS5003;37093;37.716;-122.060;2023-03-01T01:58:56;5;4;
51052;PMS5003;37093;37.716;-122.060;2023-03-01T02:01:25;2;2;
51052;PMS5003;37093;37.716;-122.060;2023-03-01T02:03:55;5;4;
51052;PMS5003;37093;37.716;-122.060;2023-03-01T02:06:26;8;3;
51052;PMS5003;37093;37.716;-122.060;2023-03-01T02:08:59;3;3;
51052;PMS5003;37093;37.716;-122.060;2023-03-01T02:11:32;5;2;
51052;PMS5003;37093;37.716;-122.060;2023-03-01T02:14:00;3;2;
51052;PMS5003;37093;37.716;-122.060;2023-03-01T02:16:29;5;5;
51052;PMS5003;37093;37.716;-122.060;2023-03-01T02:18:57;3;1;
51052;PMS5003;37093;37.716;-122.060;2023-03-01T02:21:32;3;2;
51052;PMS5003;37093;37.716;-122.060;2023-03-01T02:24:07;2;1;
51052;PMS5003;37093;37.716;-122.060;2023-03-01T02:26:46;5;4;
51052;PMS5003;37093;37.716;-122.060;2023-03-01T02:29:19;2;2;
51052;PMS5003;37093;37.716;-122.060;2023-03-01T02:31:49;2;2;
51052;PMS5003;37093;37.716;-122.060;2023-03-01T02:34:20;3;2;
51052;PMS5003;37093;37.716;-122.060;2023-03-01T02:36:52;2;1;
51052;PMS5003;37093;37.716;-122.060;2023-03-01T02:39:25;6;4;
51052;PMS5003;37093;37.716;-122.060;2023-03-01T02:41:57;4;3;
51052;PMS5003;37093;37.716;-122.060;2023-03-01T02:44:26;2;2;
51052;PMS5003;37093;37.716;-122.060;2023-03-01T02:46:55;3;3;
51052;PMS5003;37093;37.716;-122.060;2023-03-01T02:49:29;5;3;
51052;PMS5003;37093;37.716;-122.060;2023-03-01T02:52:36;3;3;
51052;PMS5003;37093;37.716;-122.060;2023-03-01T02:55:13;4;4;
51052;PMS5003;37093;37.716;-122.060;2023-03-01T02:57:44;5;4;
51052;PMS5003;37093;37.716;-122.060;2023-03-01T03:00:17;2;2;
51052;PMS5003;37093;37.716;-122.060;2023-03-01T03:02:48;6;5;
51052;PMS5003;37093;37.716;-122.060;2023-03-01T03:05:19;5;5;
51052;PMS5003;37093;37.716;-122.060;2023-03-01T03:07:49;6;5;
51052;PMS5003;37093;37.716;-122.060;2023-03-01T03:10:19;5;4;
51052;PMS5003;37093;37.716;-122.060;2023-03-01T03:12:50;2;2;
51052;PMS5003;37093;37.716;-122.060;2023-03-01T03:15:19;4;3;
51052;PMS5003;37093;37.716;-122.060;2023-03-01T03:17:49;5;3;
51052;PMS5003;37093;37.716;-122.060;2023-03-01T03:20:18;3;3;
51052;PMS5003;37093;37.716;-122.060;2023-03-01T03:22:49;4;2;
51052;PMS5003;37093;37.716;-122.060;2023-03-01T03:25:20;4;3;
51052;PMS5003;37093;37.716;-122.060;2023-03-01T03:27:49;2;2;
51052;PMS5003;37093;37.716;-122.060;2023-03-01T03:30:19;0;0;
51052;PMS5003;37093;37.716;-122.060;2023-03-01T03:32:47;1;1;
51052;PMS5003;37093;37.716;-122.060;2023-03-01T03:35:16;3;1;
51052;PMS5003;37093;37.716;-122.060;2023-03-01T03:37:46;1;1;
51052;PMS5003;37093;37.716;-122.060;2023-03-01T03:40:14;1;1;
51052;PMS5003;37093;37.716;-122.060;2023-03-01T03:42:43;2;2;
51052;PMS5003;37093;37.716;-122.060;2023-03-01T03:45:12;1;1;
51052;PMS5003;37093;37.716;-122.060;2023-03-01T03:47:40;0;0;
51052;PMS5003;37093;37.716;-122.060;2023-03-01T03:50:11;1;1;
51052;PMS5003;37093;37.716;-122.060;2023-03-01T03:52:41;2;1;
51052;PMS5003;37093;37.716;-122.060;2023-03-01T03:55:10;2;2;
51052;PMS5003;37093;37.716;-122.060;2023-03-01T03:57:40;2;2;
51052;PMS5003;37093;37.716;-122.060;2023-03-01T04:00:11;3;3;
51052;PMS5003;37093;37.716;-122.060;2023-03-01T04:02:40;2;1;
51052;PMS5003;37093;37.716;-122.060;2023-03-01T04:05:10;1;1;
51052;PMS5003;37093;37.716;-122.060;2023-03-01T04:07:41;2;2;
51052;PMS5003;37093;37.716;-122.060;2023-03-01T04:10:11;3;1;
51052;PMS5003;37093;37.716;-122.060;2023-03-01T04:12:41;2;1;
51052;PMS5003;37093;37.716;-122.060;2023-03-01T04:15:10;5;3;
51052;PMS5003;37093;37.716;-122.060;2023-03-01T04:17:39;1;1;
51052;PMS5003;37093;37.716;-122.060;2023-03-01T04:20:08;3;0;
51052;PMS5003;37093;37.716;-122.060;2023-03-01T04:22:38;0;0;
51052;PMS5003;37093;37.716;-122.060;2023-03-01T04:25:07;3;3;
51052;PMS5003;37093;37.716;-122.060;2023-03-01T04:27:36;3;1;
51052;PMS5003;37093;37.716;-122.060;2023-03-01T04:30:04;0;0;
51052;PMS5003;37093;37.716;-122.060;2023-03-01T04:32:34;1;1;
51052;PMS5003;37093;37.716;-122.060;2023-03-01T04:35:03;1;1;
51052;PMS5003;37093;37.716;-122.060;2023-03-01T04:37:32;3;2;
51052;PMS5003;37093;37.716;-122.060;2023-03-01T04:40:00;4;2;
51052;PMS5003;37093;37.716;-122.060;2023-03-01T04:42:30;2;2;
51052;PMS5003;37093;37.716;-122.060;2023-03-01T04:44:58;2;2;
51052;PMS5003;37093;37.716;-122.060;2023-03-01T04:47:27;1;1;
51052;PMS5003;37093;37.716;-122.060;2023-03-01T04:49:56;4;3;
51052;PMS5003;37093;37.716;-122.060;2023-03-01T04:52:24;7;4;
51052;PMS5003;37093;37.716;-122.060;2023-03-01T04:54:52;4;4;
51052;PMS5003;37093;37.716;-122.060;2023-03-01T04:57:21;4;2;
51052;PMS5003;37093;37.716;-122.060;2023-03-01T04:59:50;4;2;
51052;PMS5003;37093;37.716;-122.060;2023-03-01T05:02:18;1;0;
51052;PMS5003;37093;37.716;-122.060;2023-03-01T05:04:47;1;1;
51052;PMS5003;37093;37.716;-122.060;2023-03-01T05:07:16;2;1;
51052;PMS5003;37093;37.716;-122.060;2023-03-01T05:09:45;1;1;
51052;PMS5003;37093;37.716;-122.060;2023-03-01T05:12:13;2;1;
51052;PMS5003;37093;37.716;-122.060;2023-03-01T05:14:41;1;1;
51052;PMS5003;37093;37.716;-122.060;2023-03-01T05:17:10;1;1;
51052;PMS5003;37093;37.716;-122.060;2023-03-01T05:19:39;1;1;
51052;PMS5003;37093;37.716;-122.060;2023-03-01T05:22:07;1;1;
51052;PMS5003;37093;37.716;-122.060;2023-03-01T05:24:36;1;1;
51052;PMS5003;37093;37.716;-122.060;2023-03-01T05:27:05;4;1;
51052;PMS5003;37093;37.716;-122.060;2023-03-01T05:29:33;2;2;
51052;PMS5003;37093;37.716;-122.060;2023-03-01T05:32:02;2;1;
51052;PMS5003;37093;37.716;-122.060;2023-03-01T05:34:31;2;1;
51052;PMS5003;37093;37.716;-122.060;2023-03-01T05:37:01;1;1;
51052;PMS5003;37093;37.716;-122.060;2023-03-01T05:39:29;1;1;
51052;PMS5003;37093;37.716;-122.060;2023-03-01T05:41:59;2;2;
51052;PMS5003;37093;37.716;-122.060;2023-03-01T05:44:28;1;1;
51052;PMS5003;37093;37.716;-122.060;2023-03-01T05:46:56;4;3;
51052;PMS5003;37093;37.716;-122.060;2023-03-01T05:49:25;2;2;
51052;PMS5003;37093;37.716;-122.060;2023-03-01T05:51:53;3;3;
51052;PMS5003;37093;37.716;-122.060;2023-03-01T05:54:22;2;2;
51052;PMS5003;37093;37.716;-122.060;2023-03-01T05:56:51;4;2;
51052;PMS5003;37093;37.716;-122.060;2023-03-01T05:59:20;5;3;
51052;PMS5003;37093;37.716;-122.060;2023-03-01T06:01:48;3;3;
51052;PMS5003;37093;37.716;-122.060;2023-03-01T06:04:17;4;3;
51052;PMS5003;37093;37.716;-122.060;2023-03-01T06:06:45;5;5;
51052;PMS5003;37093;37.716;-122.060;2023-03-01T06:09:14;5;4;
51052;PMS5003;37093;37.716;-122.060;2023-03-01T06:11:43;4;4;
51052;PMS5003;37093;37.716;-122.060;2023-03-01T06:14:11;6;5;
51052;PMS5003;37093;37.716;-122.060;2023-03-01T06:16:39;4;4;
51052;PMS5003;37093;37.716;-122.060;2023-03-01T06:19:08;5;5;
51052;PMS5003;37093;37.716;-122.060;2023-03-01T06:21:36;7;4;
51052;PMS5003;37093;37.716;-122.060;2023-03-01T06:24:05;7;4;
51052;PMS5003;37093;37.716;-122.060;2023-03-01T06:26:34;5;5;
51052;PMS5003;37093;37.716;-122.060;2023-03-01T06:29:02;8;6;
51052;PMS5003;37093;37.716;-122.060;2023-03-01T06:31:31;8;8;
51052;PMS5003;37093;37.716;-122.060;2023-03-01T06:34:00;6;4;
51052;PMS5003;37093;37.716;-122.060;2023-03-01T06:36:28;5;5;
51052;PMS5003;37093;37.716;-122.060;2023-03-01T06:38:57;7;7;
51052;PMS5003;37093;37.716;-122.060;2023-03-01T06:41:25;6;5;
51052;PMS5003;37093;37.716;-122.060;2023-03-01T06:43:54;11;7;
51052;PMS5003;37093;37.716;-122.060;2023-03-01T06:46:23;5;5;
51052;PMS5003;37093;37.716;-122.060;2023-03-01T06:48:51;4;4;
51052;PMS5003;37093;37.716;-122.060;2023-03-01T06:51:20;4;4;
51052;PMS5003;37093;37.716;-122.060;2023-03-01T06:53:48;3;3;
51052;PMS5003;37093;37.716;-122.060;2023-03-01T06:56:17;8;2;
51052;PMS5003;37093;37.716;-122.060;2023-03-01T06:58:46;2;2;
51052;PMS5003;37093;37.716;-122.060;2023-03-01T07:01:14;2;2;
51052;PMS5003;37093;37.716;-122.060;2023-03-01T07:03:43;2;2;
51052;PMS5003;37093;37.716;-122.060;2023-03-01T07:06:11;3;3;
51052;PMS5003;37093;37.716;-122.060;2023-03-01T07:08:40;4;4;
51052;PMS5003;37093;37.716;-122.060;2023-03-01T07:11:09;2;2;
51052;PMS5003;37093;37.716;-122.060;2023-03-01T07:13:38;4;2;
51052;PMS5003;37093;37.716;-122.060;2023-03-01T07:16:06;3;3;
51052;PMS5003;37093;37.716;-122.060;2023-03-01T07:18:35;4;2;
51052;PMS5003;37093;37.716;-122.060;2023-03-01T07:21:05;2;2;
51052;PMS5003;37093;37.716;-122.060;2023-03-01T07:23:34;5;4;
51052;PMS5003;37093;37.716;-122.060;2023-03-01T07:26:02;3;2;
51052;PMS5003;37093;37.716;-122.060;2023-03-01T07:28:31;2;2;
51052;PMS5003;37093;37.716;-122.060;2023-03-01T07:31:01;3;1;
51052;PMS5003;37093;37.716;-122.060;2023-03-01T07:33:30;3;3;
51052;PMS5003;37093;37.716;-122.060;2023-03-01T07:35:59;1;1;
51052;PMS5003;37093;37.716;-122.060;2023-03-01T07:38:29;2;1;
51052;PMS5003;37093;37.716;-122.060;2023-03-01T07:40:58;3;2;
51052;PMS5003;37093;37.716;-122.060;2023-03-01T07:43:28;3;2;
51052;PMS5003;37093;37.716;-122.060;2023-03-01T07:45:58;2;1;
51052;PMS5003;37093;37.716;-122.060;2023-03-01T07:48:27;6;3;
51052;PMS5003;37093;37.716;-122.060;2023-03-01T07:50:58;1;1;
51052;PMS5003;37093;37.716;-122.060;2023-03-01T07:53:27;2;2;
51052;PMS5003;37093;37.716;-122.060;2023-03-01T07:56:04;2;1;
51052;PMS5003;37093;37.716;-122.060;2023-03-01T07:58:34;1;1;
51052;PMS5003;37093;37.716;-122.060;2023-03-01T08:01:09;1;0;
51052;PMS5003;37093;37.716;-122.060;2023-03-01T08:03:43;4;3;
51052;PMS5003;37093;37.716;-122.060;2023-03-01T08:06:13;2;1;
51052;PMS5003;37093;37.716;-122.060;2023-03-01T08:08:44;15;1;
51052;PMS5003;37093;37.716;-122.060;2023-03-01T08:11:13;2;2;
51052;PMS5003;37093;37.716;-122.060;2023-03-01T08:13:44;5;3;
51052;PMS5003;37093;37.716;-122.060;2023-03-01T08:16:15;1;1;
51052;PMS5003;37093;37.716;-122.060;2023-03-01T08:18:44;3;1;
51052;PMS5003;37093;37.716;-122.060;2023-03-01T08:21:13;2;1;
51052;PMS5003;37093;37.716;-122.060;2023-03-01T08:23:44;2;1;
51052;PMS5003;37093;37.716;-122.060;2023-03-01T08:26:15;5;2;
51052;PMS5003;37093;37.716;-122.060;2023-03-01T08:28:45;5;1;
51052;PMS5003;37093;37.716;-122.060;2023-03-01T08:31:16;1;1;
51052;PMS5003;37093;37.716;-122.060;2023-03-01T08:33:47;3;2;
51052;PMS5003;37093;37.716;-122.060;2023-03-01T08:36:19;5;2;
51052;PMS5003;37093;37.716;-122.060;2023-03-01T08:38:47;5;3;
51052;PMS5003;37093;37.716;-122.060;2023-03-01T08:41:16;1;1;
51052;PMS5003;37093;37.716;-122.060;2023-03-01T08:43:44;3;1;
51052;PMS5003;37093;37.716;-122.060;2023-03-01T08:46:13;4;1;
51052;PMS5003;37093;37.716;-122.060;2023-03-01T08:48:41;3;2;
51052;PMS5003;37093;37.716;-122.060;2023-03-01T08:51:11;2;0;
51052;PMS5003;37093;37.716;-122.060;2023-03-01T08:53:40;0;0;
51052;PMS5003;37093;37.716;-122.060;2023-03-01T08:56:10;4;2;
51052;PMS5003;37093;37.716;-122.060;2023-03-01T08:58:39;8;1;
51052;PMS5003;37093;37.716;-122.060;2023-03-01T09:01:10;2;1;
51052;PMS5003;37093;37.716;-122.060;2023-03-01T09:03:40;2;2;
51052;PMS5003;37093;37.716;-122.060;2023-03-01T09:06:10;1;0;
51052;PMS5003;37093;37.716;-122.060;2023-03-01T09:08:40;1;1;
51052;PMS5003;37093;37.716;-122.060;2023-03-01T09:11:10;3;1;
51052;PMS5003;37093;37.716;-122.060;2023-03-01T09:13:40;5;2;
51052;PMS5003;37093;37.716;-122.060;2023-03-01T09:16:10;9;1;
51052;PMS5003;37093;37.716;-122.060;2023-03-01T09:18:39;0;0;
51052;PMS5003;37093;37.716;-122.060;2023-03-01T09:21:08;0;0;
51052;PMS5003;37093;37.716;-122.060;2023-03-01T09:23:40;1;0;
51052;PMS5003;37093;37.716;-122.060;2023-03-01T09:26:11;1;1;
51052;PMS5003;37093;37.716;-122.060;2023-03-01T09:28:41;2;0;
51052;PMS5003;37093;37.716;-122.060;2023-03-01T09:31:10;1;1;
51052;PMS5003;37093;37.716;-122.060;2023-03-01T09:33:39;3;2;
51052;PMS5003;37093;37.716;-122.060;2023-03-01T09:36:10;1;1;
51052;PMS5003;37093;37.716;-122.060;2023-03-01T09:38:40;1;1;
51052;PMS5003;37093;37.716;-122.060;2023-03-01T09:41:09;1;1;
51052;PMS5003;37093;37.716;-122.060;2023-03-01T09:43:49;1;1;
51052;PMS5003;37093;37.716;-122.060;2023-03-01T09:46:22;3;1;
51052;PMS5003;37093;37.716;-122.060;2023-03-01T09:48:56;1;1;
51052;PMS5003;37093;37.716;-122.060;2023-03-01T09:51:30;4;3;
51052;PMS5003;37093;37.716;-122.060;2023-03-01T09:54:01;2;1;
51052;PMS5003;37093;37.716;-122.060;2023-03-01T09:56:33;0;0;
51052;PMS5003;37093;37.716;-122.060;2023-03-01T09:59:10;1;1;
51052;PMS5003;37093;37.716;-122.060;2023-03-01T10:01:51;4;2;
51052;PMS5003;37093;37.716;-122.060;2023-03-01T10:04:27;2;1;
51052;PMS5003;37093;37.716;-122.060;2023-03-01T10:07:13;1;1;
51052;PMS5003;37093;37.716;-122.060;2023-03-01T10:09:52;2;1;
51052;PMS5003;37093;37.716;-122.060;2023-03-01T10:12:22;2;1;
51052;PMS5003;37093;37.716;-122.060;2023-03-01T10:14:57;11;1;
51052;PMS5003;37093;37.716;-122.060;2023-03-01T10:17:33;3;1;
51052;PMS5003;37093;37.716;-122.060;2023-03-01T10:20:13;1;1;
51052;PMS5003;37093;37.716;-122.060;2023-03-01T10:22:46;3;1;
51052;PMS5003;37093;37.716;-122.060;2023-03-01T10:25:17;2;1;
51052;PMS5003;37093;37.716;-122.060;2023-03-01T10:28:01;0;0;
51052;PMS5003;37093;37.716;-122.060;2023-03-01T10:30:38;3;1;
51052;PMS5003;37093;37.716;-122.060;2023-03-01T10:33:10;2;1;
51052;PMS5003;37093;37.716;-122.060;2023-03-01T10:35:44;2;1;
51052;PMS5003;37093;37.716;-122.060;2023-03-01T10:38:13;3;1;
51052;PMS5003;37093;37.716;-122.060;2023-03-01T10:40:52;3;1;
51052;PMS5003;37093;37.716;-122.060;2023-03-01T10:43:22;1;1;
51052;PMS5003;37093;37.716;-122.060;2023-03-01T10:45:52;0;0;
51052;PMS5003;37093;37.716;-122.060;2023-03-01T10:48:21;4;2;
51052;PMS5003;37093;37.716;-122.060;2023-03-01T10:50:51;3;1;
51052;PMS5003;37093;37.716;-122.060;2023-03-01T10:53:33;1;1;
51052;PMS5003;37093;37.716;-122.060;2023-03-01T10:56:04;1;1;
51052;PMS5003;37093;37.716;-122.060;2023-03-01T10:58:35;3;1;
51052;PMS5003;37093;37.716;-122.060;2023-03-01T11:01:06;4;1;
51052;PMS5003;37093;37.716;-122.060;2023-03-01T11:04:07;1;0;
51052;PMS5003;37093;37.716;-122.060;2023-03-01T11:06:39;1;1;
51052;PMS5003;37093;37.716;-122.060;2023-03-01T11:09:17;3;1;
51052;PMS5003;37093;37.716;-122.060;2023-03-01T11:11:48;2;2;
51052;PMS5003;37093;37.716;-122.060;2023-03-01T11:14:21;2;1;
51052;PMS5003;37093;37.716;-122.060;2023-03-01T11:16:58;1;1;
51052;PMS5003;37093;37.716;-122.060;2023-03-01T11:19:29;1;1;
51052;PMS5003;37093;37.716;-122.060;2023-03-01T11:22:00;3;2;
51052;PMS5003;37093;37.716;-122.060;2023-03-01T11:24:34;3;1;
51052;PMS5003;37093;37.716;-122.060;2023-03-01T11:27:08;2;1;
51052;PMS5003;37093;37.716;-122.060;2023-03-01T11:29:45;2;0;
51052;PMS5003;37093;37.716;-122.060;2023-03-01T11:32:18;5;1;
51052;PMS5003;37093;37.716;-122.060;2023-03-01T11:34:52;0;0;
51052;PMS5003;37093;37.716;-122.060;2023-03-01T11:37:29;1;1;
51052;PMS5003;37093;37.716;-122.060;2023-03-01T11:40:09;3;1;
51052;PMS5003;37093;37.716;-122.060;2023-03-01T11:42:45;2;1;
51052;PMS5003;37093;37.716;-122.060;2023-03-01T11:45:21;1;1;
51052;PMS5003;37093;37.716;-122.060;2023-03-01T11:47:57;0;0;
51052;PMS5003;37093;37.716;-122.060;2023-03-01T11:50:35;1;1;
51052;PMS5003;37093;37.716;-122.060;2023-03-01T11:53:18;10;1;
51052;PMS5003;37093;37.716;-122.060;2023-03-01T11:56:00;2;1;
51052;PMS5003;37093;37.716;-122.060;2023-03-01T11:58:41;0;0;
51052;PMS5003;37093;37.716;-122.060;2023-03-01T12:01:25;4;1;
51052;PMS5003;37093;37.716;-122.060;2023-03-01T12:04:11;2;1;
51052;PMS5003;37093;37.716;-122.060;2023-03-01T12:06:57;1;0;
51052;PMS5003;37093;37.716;-122.060;2023-03-01T12:09:36;2;1;
51052;PMS5003;37093;37.716;-122.060;2023-03-01T12:12:24;1;1;
51052;PMS5003;37093;37.716;-122.060;2023-03-01T12:15:02;1;0;
51052;PMS5003;37093;37.716;-122.060;2023-03-01T12:17:59;3;1;
51052;PMS5003;37093;37.716;-122.060;2023-03-01T12:20:42;0;0;
51052;PMS5003;37093;37.716;-122.060;2023-03-01T12:23:28;1;1;
51052;PMS5003;37093;37.716;-122.060;2023-03-01T12:26:16;3;1;
51052;PMS5003;37093;37.716;-122.060;2023-03-01T12:29:06;0;0;
51052;PMS5003;37093;37.716;-122.060;2023-03-01T12:31:53;1;1;
51052;PMS5003;37093;37.716;-122.060;2023-03-01T12:34:43;0;0;
51052;PMS5003;37093;37.716;-122.060;2023-03-01T12:37:25;2;1;
51052;PMS5003;37093;37.716;-122.060;2023-03-01T12:40:17;2;0;
51052;PMS5003;37093;37.716;-122.060;2023-03-01T12:42:58;0;0;
51052;PMS5003;37093;37.716;-122.060;2023-03-01T12:45:40;2;0;
51052;PMS5003;37093;37.716;-122.060;2023-03-01T12:48:21;0;0;
51052;PMS5003;37093;37.716;-122.060;2023-03-01T12:50:59;2;0;
51052;PMS5003;37093;37.716;-122.060;2023-03-01T12:53:35;2;1;
51052;PMS5003;37093;37.716;-122.060;2023-03-01T12:56:07;0;0;
51052;PMS5003;37093;37.716;-122.060;2023-03-01T12:58:39;3;0;
51052;PMS5003;37093;37.716;-122.060;2023-03-01T13:01:19;0;0;
51052;PMS5003;37093;37.716;-122.060;2023-03-01T13:04:01;1;0;
51052;PMS5003;37093;37.716;-122.060;2023-03-01T13:06:44;2;1;
51052;PMS5003;37093;37.716;-122.060;2023-03-01T13:09:23;1;1;
51052;PMS5003;37093;37.716;-122.060;2023-03-01T13:11:57;0;0;
51052;PMS5003;37093;37.716;-122.060;2023-03-01T13:14:44;1;1;
51052;PMS5003;37093;37.716;-122.060;2023-03-01T13:17:32;0;0;
51052;PMS5003;37093;37.716;-122.060;2023-03-01T13:20:15;1;0;
51052;PMS5003;37093;37.716;-122.060;2023-03-01T13:22:47;0;0;
51052;PMS5003;37093;37.716;-122.060;2023-03-01T13:25:27;3;1;
51052;PMS5003;37093;37.716;-122.060;2023-03-01T13:28:32;2;0;
51052;PMS5003;37093;37.716;-122.060;2023-03-01T13:31:07;0;0;
51052;PMS5003;37093;37.716;-122.060;2023-03-01T13:33:40;0;0;
51052;PMS5003;37093;37.716;-122.060;2023-03-01T13:36:13;1;1;
51052;PMS5003;37093;37.716;-122.060;2023-03-01T13:39:30;0;0;
51052;PMS5003;37093;37.716;-122.060;2023-03-01T13:42:30;2;0;
51052;PMS5003;37093;37.716;-122.060;2023-03-01T13:45:04;0;0;
51052;PMS5003;37093;37.716;-122.060;2023-03-01T13:48:02;1;1;
51052;PMS5003;37093;37.716;-122.060;2023-03-01T13:50:38;2;1;
51052;PMS5003;37093;37.716;-122.060;2023-03-01T13:53:16;1;0;
51052;PMS5003;37093;37.716;-122.060;2023-03-01T13:55:47;0;0;
51052;PMS5003;37093;37.716;-122.060;2023-03-01T13:58:21;2;0;
51052;PMS5003;37093;37.716;-122.060;2023-03-01T14:00:59;1;1;
51052;PMS5003;37093;37.716;-122.060;2023-03-01T14:03:30;2;0;
51052;PMS5003;37093;37.716;-122.060;2023-03-01T14:06:02;0;0;
51052;PMS5003;37093;37.716;-122.060;2023-03-01T14:08:35;3;2;
51052;PMS5003;37093;37.716;-122.060;2023-03-01T14:11:08;2;0;
51052;PMS5003;37093;37.716;-122.060;2023-03-01T14:14:59;0;0;
51052;PMS5003;37093;37.716;-122.060;2023-03-01T14:17:38;2;0;
51052;PMS5003;37093;37.716;-122.060;2023-03-01T14:20:17;2;0;
51052;PMS5003;37093;37.716;-122.060;2023-03-01T14:22:49;0;0;
51052;PMS5003;37093;37.716;-122.060;2023-03-01T14:25:21;2;0;
51052;PMS5003;37093;37.716;-122.060;2023-03-01T14:27:57;0;0;
51052;PMS5003;37093;37.716;-122.060;2023-03-01T14:30:31;0;0;
51052;PMS5003;37093;37.716;-122.060;2023-03-01T14:33:04;1;0;
51052;PMS5003;37093;37.716;-122.060;2023-03-01T14:35:34;0;0;
51052;PMS5003;37093;37.716;-122.060;2023-03-01T14:38:03;1;1;
51052;PMS5003;37093;37.716;-122.060;2023-03-01T14:40:32;0;0;
51052;PMS5003;37093;37.716;-122.060;2023-03-01T14:43:09;1;1;
51052;PMS5003;37093;37.716;-122.060;2023-03-01T14:45:47;0;0;
51052;PMS5003;37093;37.716;-122.060;2023-03-01T14:48:17;3;1;
51052;PMS5003;37093;37.716;-122.060;2023-03-01T14:50:46;4;1;
51052;PMS5003;37093;37.716;-122.060;2023-03-01T14:53:17;0;0;
51052;PMS5003;37093;37.716;-122.060;2023-03-01T14:55:50;1;1;
51052;PMS5003;37093;37.716;-122.060;2023-03-01T14:58:21;0;0;
51052;PMS5003;37093;37.716;-122.060;2023-03-01T15:00:51;0;0;
51052;PMS5003;37093;37.716;-122.060;2023-03-01T15:03:26;0;0;
51052;PMS5003;37093;37.716;-122.060;2023-03-01T15:05:58;0;0;
51052;PMS5003;37093;37.716;-122.060;2023-03-01T15:08:28;1;0;
51052;PMS5003;37093;37.716;-122.060;2023-03-01T15:10:59;1;0;
51052;PMS5003;37093;37.716;-122.060;2023-03-01T15:13:31;0;0;
51052;PMS5003;37093;37.716;-122.060;2023-03-01T15:16:02;2;1;
51052;PMS5003;37093;37.716;-122.060;2023-03-01T15:18:36;0;0;
51052;PMS5003;37093;37.716;-122.060;2023-03-01T15:21:15;0;0;
51052;PMS5003;37093;37.716;-122.060;2023-03-01T15:23:48;0;0;
51052;PMS5003;37093;37.716;-122.060;2023-03-01T15:26:21;1;0;
51052;PMS5003;37093;37.716;-122.060;2023-03-01T15:28:52;1;1;
51052;PMS5003;37093;37.716;-122.060;2023-03-01T15:31:24;0;0;
51052;PMS5003;37093;37.716;-122.060;2023-03-01T15:34:07;3;0;
51052;PMS5003;37093;37.716;-122.060;2023-03-01T15:36:39;0;0;
51052;PMS5003;37093;37.716;-122.060;2023-03-01T15:39:29;2;0;
51052;PMS5003;37093;37.716;-122.060;2023-03-01T15:42:00;1;0;
51052;PMS5003;37093;37.716;-122.060;2023-03-01T15:44:32;0;0;
51052;PMS5003;37093;37.716;-122.060;2023-03-01T15:47:01;0;0;
51052;PMS5003;37093;37.716;-122.060;2023-03-01T15:49:36;3;2;
51052;PMS5003;37093;37.716;-122.060;2023-03-01T15:52:09;0;0;
51052;PMS5003;37093;37.716;-122.060;2023-03-01T15:54:43;1;0;
51052;PMS5003;37093;37.716;-122.060;2023-03-01T15:57:12;1;0;
51052;PMS5003;37093;37.716;-122.060;2023-03-01T15:59:40;0;0;
51052;PMS5003;37093;37.716;-122.060;2023-03-01T16:02:09;0;0;
51052;PMS5003;37093;37.716;-122.060;2023-03-01T16:04:38;0;0;
51052;PMS5003;37093;37.716;-122.060;2023-03-01T16:07:07;1;0;
51052;PMS5003;37093;37.716;-122.060;2023-03-01T16:09:37;1;0;
51052;PMS5003;37093;37.716;-122.060;2023-03-01T16:12:05;1;0;
51052;PMS5003;37093;37.716;-122.060;2023-03-01T16:14:39;1;0;
51052;PMS5003;37093;37.716;-122.060;2023-03-01T16:17:08;0;0;
51052;PMS5003;37093;37.716;-122.060;2023-03-01T16:19:37;0;0;
51052;PMS5003;37093;37.716;-122.060;2023-03-01T16:22:05;0;0;
51052;PMS5003;37093;37.716;-122.060;2023-03-01T16:24:34;0;0;
51052;PMS5003;37093;37.716;-122.060;2023-03-01T16:27:02;1;0;
51052;PMS5003;37093;37.716;-122.060;2023-03-01T16:29:31;2;0;
51052;PMS5003;37093;37.716;-122.060;2023-03-01T16:32:00;0;0;
51052;PMS5003;37093;37.716;-122.060;2023-03-01T16:34:28;1;1;
51052;PMS5003;37093;37.716;-122.060;2023-03-01T16:36:57;0;0;